Terminal Aerodrome Forecast
Issued by NWS Omaha/Valley, NE

Home | Current Version | Previous Version | Text Only | Print | Product List | Glossary Off
Versions: 1 2 3 4 5 6 7 8 9 10 11 12 13 14 15 16 17 18 19

000
FTUS43 KOAX 261203 RRA
TAFOFK
TAF
KOFK 261203Z 2612/2712 VRB03KT P6SM SKC
     FM261800 04007KT P6SM SCT250 PROB30 2700/2706 P6SM TS BKN040CB
     FM270600 11005KT P6SM BKN050 PROB30 2706/2709 -RA OVC050
     FM270900 09005KT 3SM BR OVC005=

USA.gov is the U.S. government's official web portal to all federal, state and local government web resources and services.